Time;durP1;ratioP1;P1;durP2;ratioP2;P2;SDS_P1;SDS_P2;PMS_P1;PMS_P2;Temp;Humidity;BMP_temperature;BMP_pressure;BME280_temperature;BME280_humidity;BME280_pressure;Samples;Min_cycle;Max_cycle;Signal;HPM_P1;HPM_P2
2022/05/10 00:00:40;;;;;;;10.23;3.40;;;;;;;12.86;100.00;101578.06;7395975;19;20393;-59
2022/05/10 00:03:10;;;;;;;12.83;4.03;;;;;;;12.86;100.00;101569.41;7387659;19;20423;-59
2022/05/10 00:05:42;;;;;;;6.67;3.43;;;;;;;12.81;100.00;101569.19;7393880;19;20434;-59
2022/05/10 00:08:17;;;;;;;9.53;3.70;;;;;;;12.77;100.00;101562.97;7389577;19;20416;-59
2022/05/10 00:10:47;;;;;;;11.13;3.87;;;;;;;12.79;100.00;101558.78;7396487;19;20386;-59
2022/05/10 00:13:18;;;;;;;12.50;3.97;;;;;;;12.76;100.00;101556.03;7387706;19;20419;-59
2022/05/10 00:15:47;;;;;;;7.83;3.67;;;;;;;12.71;100.00;101560.13;7393706;19;20431;-59
2022/05/10 00:18:18;;;;;;;9.00;3.80;;;;;;;12.66;100.00;101552.16;7390734;19;20424;-60
2022/05/10 00:20:49;;;;;;;7.93;3.40;;;;;;;12.65;100.00;101557.25;7393896;19;20394;-59
2022/05/10 00:23:21;;;;;;;7.63;3.23;;;;;;;12.65;100.00;101555.56;7387695;19;20428;-59
2022/05/10 00:25:50;;;;;;;10.50;4.30;;;;;;;12.61;100.00;101547.59;7393958;19;20417;-59
2022/05/10 00:28:20;;;;;;;10.13;4.40;;;;;;;12.58;100.00;101552.59;7388426;19;20818;-60
2022/05/10 00:30:49;;;;;;;12.30;4.53;;;;;;;12.55;100.00;101554.25;7395662;19;20385;-59
2022/05/10 00:33:22;;;;;;;8.20;3.37;;;;;;;12.50;100.00;101544.47;7388366;19;20407;-59
2022/05/10 00:35:51;;;;;;;10.43;3.63;;;;;;;12.50;100.00;101539.28;7394140;19;20412;-59
2022/05/10 00:38:24;;;;;;;8.40;3.20;;;;;;;12.52;100.00;101542.88;7387927;19;20488;-59
2022/05/10 00:40:54;;;;;;;7.77;3.43;;;;;;;12.49;100.00;101543.59;7396021;19;20398;-59
2022/05/10 00:43:28;;;;;;;8.00;3.60;;;;;;;12.38;100.00;101530.19;7388281;19;20411;-59
2022/05/10 00:46:00;;;;;;;12.47;3.63;;;;;;;12.35;100.00;101524.84;7396485;19;20420;-60
2022/05/10 00:48:32;;;;;;;11.37;3.53;;;;;;;12.39;100.00;101531.03;7389537;19;20461;-59
2022/05/10 00:51:14;;;;;;;7.13;3.40;;;;;;;12.42;100.00;101523.44;7401104;19;20470;-59
2022/05/10 00:53:56;;;;;;;10.33;4.20;;;;;;;12.37;100.00;101512.84;7388066;19;20431;-59
2022/05/10 00:56:32;;;;;;;9.07;4.10;;;;;;;12.35;100.00;101508.44;7394555;19;20433;-59
2022/05/10 00:59:05;;;;;;;17.87;4.87;;;;;;;12.22;100.00;101501.81;7390279;19;20949;-59
2022/05/10 01:01:36;;;;;;;12.47;3.80;;;;;;;12.07;100.00;101507.13;7395220;19;20399;-59
2022/05/10 01:04:13;;;;;;;8.37;3.70;;;;;;;12.00;100.00;101506.81;7388981;19;20431;-59
2022/05/10 01:06:47;;;;;;;10.10;3.93;;;;;;;12.00;100.00;101501.63;7394369;19;20422;-59
2022/05/10 01:09:24;;;;;;;8.97;3.70;;;;;;;11.97;100.00;101496.31;7389909;19;20489;-59
2022/05/10 01:11:58;;;;;;;10.50;3.43;;;;;;;11.91;100.00;101493.44;7396112;19;20390;-59
2022/05/10 01:14:32;;;;;;;9.30;3.60;;;;;;;11.87;100.00;101488.94;7388740;19;20420;-60
2022/05/10 01:17:02;;;;;;;8.50;3.70;;;;;;;11.77;100.00;101479.84;7396510;19;20385;-60
2022/05/10 01:19:31;;;;;;;12.70;4.30;;;;;;;11.76;100.00;101472.91;7388675;19;20409;-60
2022/05/10 01:22:12;;;;;;;8.63;3.87;;;;;;;11.71;100.00;101467.53;7396254;19;20388;-60
2022/05/10 01:24:59;;;;;;;9.17;4.07;;;;;;;11.65;100.00;101467.22;7388936;19;20782;-60
2022/05/10 01:27:43;;;;;;;10.50;3.40;;;;;;;11.68;100.00;101462.19;7395849;19;20949;-60
2022/05/10 01:30:18;;;;;;;8.83;3.60;;;;;;;11.77;100.00;101458.25;7394763;19;20417;-60
2022/05/10 01:35:40;;;;;;;9.37;3.70;;;;;;;11.68;100.00;101448.38;7393365;19;20434;-60
2022/05/10 01:38:15;;;;;;;11.90;3.93;;;;;;;11.66;100.00;101453.47;7388482;19;20433;-60
2022/05/10 01:40:48;;;;;;;9.80;3.53;;;;;;;11.59;100.00;101436.78;7390710;19;21042;-59
2022/05/10 01:43:21;;;;;;;7.87;3.63;;;;;;;11.58;100.00;101442.75;7389293;19;20420;-60
2022/05/10 01:45:56;;;;;;;16.40;3.90;;;;;;;11.65;100.00;101436.22;7393238;19;20427;-60
2022/05/10 01:48:25;;;;;;;10.23;3.90;;;;;;;11.63;100.00;101431.78;7389208;19;20417;-60
2022/05/10 01:50:58;;;;;;;9.67;4.40;;;;;;;11.69;100.00;101425.19;7397358;19;20410;-59
2022/05/10 01:53:32;;;;;;;7.53;3.53;;;;;;;11.61;100.00;101427.41;7389496;19;20484;-60
2022/05/10 01:56:04;;;;;;;6.30;3.37;;;;;;;11.74;100.00;101415.94;7393078;19;20424;-59
2022/05/10 01:58:37;;;;;;;12.80;3.63;;;;;;;11.66;100.00;101408.66;7389754;19;20418;-60
2022/05/10 02:01:12;;;;;;;12.43;3.87;;;;;;;11.59;100.00;101416.09;7397610;19;20496;-59
2022/05/10 02:03:44;;;;;;;10.17;4.13;;;;;;;11.61;100.00;101408.44;7387512;19;21031;-59
2022/05/10 02:06:19;;;;;;;15.40;4.47;;;;;;;11.54;100.00;101406.38;7393266;19;20485;-59
2022/05/10 02:08:52;;;;;;;31.90;16.37;;;;;;;11.84;100.00;101398.31;7387328;19;20424;-59
2022/05/10 02:11:21;;;;;;;61.30;33.43;;;;;;;12.11;100.00;101397.84;7393793;19;20390;-60
2022/05/10 02:13:55;;;;;;;13.60;5.90;;;;;;;11.96;100.00;101401.47;7387937;19;20508;-59
2022/05/10 02:16:31;;;;;;;39.67;21.30;;;;;;;11.99;100.00;101399.00;7392762;19;20421;-59
2022/05/10 02:19:04;;;;;;;8.53;3.77;;;;;;;11.98;100.00;101404.09;7387108;19;20417;-59
2022/05/10 02:21:39;;;;;;;11.80;5.60;;;;;;;11.75;100.00;101397.03;7394411;19;20780;-59
2022/05/10 02:24:11;;;;;;;10.20;4.20;;;;;;;11.91;100.00;101402.94;7386659;19;20427;-60
2022/05/10 02:26:44;;;;;;;11.23;6.20;;;;;;;12.16;100.00;101401.53;7392585;19;20423;-59
2022/05/10 02:29:19;;;;;;;16.10;5.87;;;;;;;12.18;100.00;101396.41;7388334;19;20945;-59
2022/05/10 02:34:38;;;;;;;10.03;4.37;;;;;;;12.12;100.00;101392.75;7386306;19;20421;-59
2022/05/10 02:37:08;;;;;;;9.70;4.30;;;;;;;11.89;100.00;101384.75;7394035;19;20380;-59
2022/05/10 02:39:38;;;;;;;7.73;4.00;;;;;;;11.72;100.00;101377.91;7388662;19;20444;-59
2022/05/10 02:42:09;;;;;;;13.23;4.47;;;;;;;11.64;100.00;101377.53;7393894;19;20387;-59
2022/05/10 02:44:39;;;;;;;10.07;4.73;;;;;;;11.66;100.00;101368.19;7392890;19;20428;-59
2022/05/10 02:47:12;;;;;;;8.73;4.50;;;;;;;11.58;100.00;101372.97;7401620;19;20390;-59
2022/05/10 02:49:43;;;;;;;14.40;4.70;;;;;;;11.78;100.00;101364.41;7394012;19;20431;-59
2022/05/10 02:52:12;;;;;;;11.53;5.33;;;;;;;11.62;100.00;101361.09;7401327;19;20384;-59
2022/05/10 02:54:42;;;;;;;9.27;3.67;;;;;;;11.48;100.00;101363.00;7394282;19;20417;-59
2022/05/10 02:57:11;;;;;;;10.80;4.27;;;;;;;11.57;100.00;101350.53;7401364;19;20384;-59
2022/05/10 02:59:41;;;;;;;11.63;4.63;;;;;;;11.50;100.00;101355.34;7394431;19;20509;-59
2022/05/10 03:02:17;;;;;;;9.60;4.60;;;;;;;11.55;100.00;101348.69;7400794;19;20397;-59
2022/05/10 03:04:53;;;;;;;10.60;4.70;;;;;;;11.60;100.00;101347.22;7392795;19;20456;-59
2022/05/10 03:07:23;;;;;;;13.03;3.97;;;;;;;11.43;100.00;101342.13;7400632;19;20466;-59
2022/05/10 03:09:53;;;;;;;8.27;3.43;;;;;;;11.43;100.00;101336.97;7392824;19;20944;-59
2022/05/10 03:12:22;;;;;;;11.10;4.73;;;;;;;11.51;100.00;101328.69;7400174;19;20395;-59
2022/05/10 03:14:52;;;;;;;9.43;4.10;;;;;;;11.45;100.00;101330.16;7393219;19;20425;-59
2022/05/10 03:17:24;;;;;;;11.30;4.53;;;;;;;11.31;100.00;101332.09;7400210;19;20398;-59
2022/05/10 03:19:53;;;;;;;9.93;4.67;;;;;;;11.43;100.00;101330.94;7394773;19;20413;-59
2022/05/10 03:22:23;;;;;;;24.60;11.57;;;;;;;11.54;100.00;101324.53;7399778;19;20390;-58
2022/05/10 03:24:53;;;;;;;10.17;5.10;;;;;;;11.66;100.00;101329.41;7392880;19;20421;-59
2022/05/10 03:27:29;;;;;;;33.73;17.80;;;;;;;11.66;100.00;101323.34;7400030;19;20390;-59
2022/05/10 03:29:59;;;;;;;14.13;5.73;;;;;;;11.63;100.00;101321.50;7397592;19;20417;-59
2022/05/10 03:32:31;;;;;;;9.37;4.60;;;;;;;11.74;100.00;101325.47;7399352;19;20393;-59
2022/05/10 03:35:00;;;;;;;15.57;6.67;;;;;;;11.59;100.00;101324.78;7397841;19;20428;-58
2022/05/10 03:37:32;;;;;;;10.87;4.27;;;;;;;11.72;100.00;101305.53;7399676;19;20915;-59
2022/05/10 03:40:03;;;;;;;10.27;4.20;;;;;;;11.64;100.00;101310.34;7398886;19;20408;-58
2022/05/10 03:42:34;;;;;;;9.07;4.23;;;;;;;11.61;100.00;101300.78;7399231;19;20403;-56
2022/05/10 03:45:04;;;;;;;10.87;4.70;;;;;;;11.69;100.00;101295.94;7397457;19;20415;-59
2022/05/10 03:47:37;;;;;;;23.57;12.27;;;;;;;11.65;100.00;101296.63;7392687;19;20736;-60
2022/05/10 03:50:08;;;;;;;20.37;7.40;;;;;;;11.56;100.00;101288.44;7399220;19;20393;-59
2022/05/10 03:52:40;;;;;;;10.13;4.40;;;;;;;11.49;100.00;101287.28;7392704;19;20419;-59
2022/05/10 03:55:12;;;;;;;21.30;11.77;;;;;;;11.56;100.00;101275.53;7397219;19;20447;-57
2022/05/10 03:57:44;;;;;;;10.20;4.70;;;;;;;11.63;100.00;101293.06;7396480;19;20395;-59
2022/05/10 04:00:18;;;;;;;12.40;3.93;;;;;;;11.75;100.00;101292.78;7398815;19;20370;-57
2022/05/10 04:02:51;;;;;;;15.07;7.63;;;;;;;11.64;100.00;101286.22;7391562;19;20770;-58
2022/05/10 04:05:22;;;;;;;7.87;4.60;;;;;;;11.70;100.00;101289.94;7396901;19;20409;-58
2022/05/10 04:07:51;;;;;;;9.40;4.20;;;;;;;11.69;100.00;101288.19;7391316;19;20394;-58
2022/05/10 04:10:22;;;;;;;11.80;4.57;;;;;;;11.73;100.00;101290.09;7398535;19;20396;-59
2022/05/10 04:12:52;;;;;;;17.60;4.00;;;;;;;11.85;100.00;101283.72;7392187;19;20387;-59
2022/05/10 04:15:22;;;;;;;11.30;4.40;;;;;;;11.75;100.00;101277.25;7396700;19;20415;-59
2022/05/10 04:17:54;;;;;;;14.57;3.90;;;;;;;11.83;100.00;101275.00;7364521;19;20390;-59
2022/05/10 04:20:24;;;;;;;8.10;4.00;;;;;;;11.86;100.00;101281.19;7397101;19;20940;-59
2022/05/10 04:22:54;;;;;;;9.97;4.23;;;;;;;11.80;100.00;101264.53;7378831;19;20468;-58
2022/05/10 04:25:25;;;;;;;10.90;4.47;;;;;;;11.90;100.00;101269.31;7396564;19;20489;-59
2022/05/10 04:27:55;;;;;;;8.60;4.17;;;;;;;11.88;100.00;101273.50;7390950;19;20438;-56
2022/05/10 04:30:25;;;;;;;10.93;5.03;;;;;;;11.91;100.00;101267.59;7397969;19;20920;-59
2022/05/10 04:32:57;;;;;;;10.67;5.20;;;;;;;11.99;100.00;101261.94;7388625;19;20514;-59
2022/05/10 04:35:27;;;;;;;11.77;4.80;;;;;;;12.02;100.00;101262.06;7396128;19;20770;-59
2022/05/10 04:37:56;;;;;;;7.43;4.30;;;;;;;12.02;100.00;101256.03;7391718;19;20946;-59
2022/05/10 04:43:08;;;;;;;10.87;5.10;;;;;;;12.19;100.00;101261.09;7390477;19;20417;-59
2022/05/10 04:45:38;;;;;;;11.73;4.87;;;;;;;12.23;100.00;101258.69;7395467;19;20739;-59
2022/05/10 04:48:10;;;;;;;9.93;4.40;;;;;;;12.09;100.00;101258.09;7391188;19;20805;-59
2022/05/10 04:50:40;;;;;;;8.80;4.57;;;;;;;12.22;100.00;101259.53;7401846;19;20409;-58
2022/05/10 04:53:16;;;;;;;11.33;4.97;;;;;;;12.28;100.00;101256.28;7387075;19;20447;-59
2022/05/10 04:55:46;;;;;;;10.67;4.97;;;;;;;12.25;100.00;101259.63;7395164;19;20497;-59
2022/05/10 04:58:16;;;;;;;10.07;4.57;;;;;;;12.29;100.00;101239.94;7372511;19;20414;-59
2022/05/10 05:00:45;;;;;;;11.97;4.70;;;;;;;12.27;100.00;101250.22;7395646;19;20466;-59
2022/05/10 05:03:18;;;;;;;10.00;4.53;;;;;;;12.19;100.00;101248.16;7388898;19;20418;-58
2022/05/10 05:05:48;;;;;;;15.90;5.23;;;;;;;12.27;100.00;101245.06;7393406;19;20793;-59
2022/05/10 05:08:18;;;;;;;13.97;5.13;;;;;;;12.28;100.00;101239.09;7388198;19;20489;-57
2022/05/10 05:10:47;;;;;;;18.50;5.17;;;;;;;12.22;100.00;101245.69;7396503;19;20382;-58
2022/05/10 05:13:17;;;;;;;10.97;4.60;;;;;;;12.36;100.00;101246.28;7388369;19;20438;-58
2022/05/10 05:15:47;;;;;;;12.00;5.30;;;;;;;12.34;100.00;101243.63;7394060;19;20416;-59
2022/05/10 05:18:19;;;;;;;15.83;4.63;;;;;;;12.38;100.00;101239.47;7388991;19;20396;-59
2022/05/10 05:20:48;;;;;;;9.73;5.60;;;;;;;12.46;100.00;101244.97;7396174;19;20403;-59
2022/05/10 05:23:21;;;;;;;10.53;5.20;;;;;;;12.49;100.00;101238.22;7389885;19;20419;-59
2022/05/10 05:25:52;;;;;;;11.07;5.23;;;;;;;12.45;100.00;101241.47;7394338;19;21168;-59
2022/05/10 05:28:22;;;;;;;14.03;5.17;;;;;;;12.48;100.00;101245.91;7388539;19;20416;-58
2022/05/10 05:30:52;;;;;;;11.60;5.30;;;;;;;12.51;100.00;101244.31;7395928;19;20391;-58
2022/05/10 05:33:24;;;;;;;13.97;5.80;;;;;;;12.53;100.00;101239.22;7387519;19;20936;-59
2022/05/10 05:35:54;;;;;;;19.87;5.20;;;;;;;12.65;100.00;101231.06;7394021;19;20415;-59
2022/05/10 05:38:24;;;;;;;13.47;5.13;;;;;;;12.68;100.00;101244.16;7386914;19;20412;-59
2022/05/10 05:40:53;;;;;;;11.67;5.50;;;;;;;12.75;100.00;101238.38;7395338;19;20397;-59
2022/05/10 05:43:24;;;;;;;13.50;5.47;;;;;;;12.92;100.00;101233.00;7389011;19;20423;-56
2022/05/10 05:45:54;;;;;;;11.63;5.27;;;;;;;12.95;100.00;101235.72;7393661;19;20414;-58
2022/05/10 05:48:26;;;;;;;12.40;5.83;;;;;;;13.00;100.00;101231.59;7389143;19;20404;-59
2022/05/10 05:50:56;;;;;;;12.27;5.67;;;;;;;13.04;100.00;101238.69;7394980;19;20390;-59
2022/05/10 05:53:26;;;;;;;11.90;5.07;;;;;;;13.05;100.00;101240.44;7388265;19;20488;-59
2022/05/10 05:55:55;;;;;;;11.33;5.33;;;;;;;13.08;100.00;101232.78;7393475;19;20954;-58
2022/05/10 05:58:25;;;;;;;11.47;4.40;;;;;;;13.16;100.00;101237.38;7387845;19;20422;-59
2022/05/10 06:00:55;;;;;;;13.27;5.20;;;;;;;13.25;100.00;101232.56;7394337;19;20396;-58
2022/05/10 06:03:27;;;;;;;9.33;4.90;;;;;;;13.24;100.00;101235.97;7388276;19;20418;-59
2022/05/10 06:05:56;;;;;;;16.30;5.67;;;;;;;13.34;100.00;101235.47;7393384;19;20418;-58
2022/05/10 06:08:26;;;;;;;18.73;5.40;;;;;;;13.42;100.00;101229.69;7386956;19;20416;-59
2022/05/10 06:10:57;;;;;;;17.87;5.17;;;;;;;13.59;100.00;101227.81;7394323;19;20387;-59
2022/05/10 06:13:27;;;;;;;13.00;5.47;;;;;;;13.69;100.00;101223.84;7387374;19;20476;-59
2022/05/10 06:15:56;;;;;;;11.40;4.73;;;;;;;13.73;100.00;101223.09;7393072;19;20420;-58
2022/05/10 06:18:29;;;;;;;9.70;4.57;;;;;;;13.88;100.00;101226.25;7385013;19;20496;-58
2022/05/10 06:20:58;;;;;;;15.80;5.43;;;;;;;14.04;100.00;101217.31;7394455;19;20458;-58
2022/05/10 06:23:28;;;;;;;13.97;5.33;;;;;;;14.13;100.00;101221.94;7387051;19;20426;-59
2022/05/10 06:25:58;;;;;;;15.80;5.47;;;;;;;14.22;100.00;101221.38;7392955;19;20414;-58
2022/05/10 06:28:27;;;;;;;18.03;5.80;;;;;;;14.33;100.00;101221.72;7387438;19;20422;-59
2022/05/10 06:30:58;;;;;;;14.87;5.57;;;;;;;14.57;100.00;101228.56;7394174;19;20392;-57
2022/05/10 06:33:30;;;;;;;10.40;5.40;;;;;;;14.56;100.00;101227.66;7387579;19;20427;-57
2022/05/10 06:36:00;;;;;;;16.47;5.27;;;;;;;14.67;100.00;101220.22;7393823;19;20989;-58
2022/05/10 06:38:30;;;;;;;19.90;6.40;;;;;;;14.73;100.00;101219.56;7384272;19;20813;-58
2022/05/10 06:41:01;;;;;;;18.63;5.90;;;;;;;14.84;100.00;101222.53;7396632;19;20400;-58
2022/05/10 06:43:35;;;;;;;24.83;10.63;;;;;;;14.96;100.00;101217.72;7382559;19;20434;-59
2022/05/10 06:46:05;;;;;;;18.93;5.60;;;;;;;15.14;100.00;101216.53;7392395;19;20412;-57
2022/05/10 06:48:38;;;;;;;17.60;6.70;;;;;;;15.14;100.00;101220.81;7382340;19;20446;-58
2022/05/10 06:51:08;;;;;;;10.17;5.70;;;;;;;14.99;100.00;101220.38;7393607;19;20455;-59
2022/05/10 06:53:38;;;;;;;11.77;5.60;;;;;;;15.02;100.00;101216.16;7381797;19;20413;-59
2022/05/10 06:56:09;;;;;;;12.00;5.17;;;;;;;15.12;100.00;101212.97;7392113;19;20503;-58
2022/05/10 06:58:39;;;;;;;14.57;5.10;;;;;;;15.25;100.00;101207.34;7388084;19;20507;-58
2022/05/10 07:01:11;;;;;;;15.67;7.30;;;;;;;15.32;100.00;101210.97;7392699;19;20738;-57
2022/05/10 07:03:46;;;;;;;11.97;5.40;;;;;;;15.32;100.00;101204.88;7384027;19;20964;-57
2022/05/10 07:06:18;;;;;;;16.53;5.97;;;;;;;15.40;100.00;101208.59;7393459;19;20419;-57
2022/05/10 07:08:48;;;;;;;16.10;6.40;;;;;;;15.40;100.00;101200.81;7384843;19;20939;-58
2022/05/10 07:11:17;;;;;;;11.13;5.40;;;;;;;15.52;100.00;101193.38;7392798;19;20403;-59
2022/05/10 07:13:48;;;;;;;11.40;5.60;;;;;;;15.65;100.00;101193.69;7383793;19;20455;-60
2022/05/10 07:16:17;;;;;;;16.10;5.83;;;;;;;15.83;100.00;101195.06;7391129;19;20486;-59
2022/05/10 07:18:50;;;;;;;15.97;5.60;;;;;;;15.99;100.00;101198.97;7383713;19;20415;-60
2022/05/10 07:21:19;;;;;;;11.37;5.37;;;;;;;16.11;100.00;101198.41;7392487;19;20389;-57
2022/05/10 07:23:52;;;;;;;10.93;5.10;;;;;;;16.23;100.00;101192.63;7382886;19;20736;-59
2022/05/10 07:26:21;;;;;;;13.63;5.80;;;;;;;16.42;100.00;101202.66;7392774;19;20452;-58
2022/05/10 07:28:51;;;;;;;16.50;5.53;;;;;;;16.68;100.00;101196.31;7384056;19;21237;-59
2022/05/10 07:31:20;;;;;;;17.20;5.87;;;;;;;16.72;100.00;101198.16;7399144;19;20403;-57
2022/05/10 07:33:53;;;;;;;15.40;5.20;;;;;;;16.71;100.00;101201.59;7392277;19;20427;-57
2022/05/10 07:36:33;;;;;;;9.80;4.90;;;;;;;16.92;100.00;101196.00;7397283;19;20420;-59
2022/05/10 07:39:03;;;;;;;13.37;5.60;;;;;;;16.99;100.00;101197.88;7391732;19;20425;-58
2022/05/10 07:41:33;;;;;;;12.63;6.10;;;;;;;17.08;100.00;101194.66;7402835;19;20404;-59
2022/05/10 07:44:03;;;;;;;13.77;5.67;;;;;;;17.21;100.00;101198.41;7392938;19;20424;-56
2022/05/10 07:46:32;;;;;;;10.30;4.43;;;;;;;17.23;100.00;101201.06;7396525;19;20419;-57
2022/05/10 07:49:05;;;;;;;15.40;5.37;;;;;;;17.16;100.00;101196.56;7391059;19;20424;-57
2022/05/10 07:51:34;;;;;;;15.33;5.60;;;;;;;17.20;100.00;101198.38;7397992;19;21029;-57
2022/05/10 07:54:04;;;;;;;14.23;5.10;;;;;;;17.30;100.00;101196.84;7390756;19;20428;-59
2022/05/10 07:56:33;;;;;;;12.73;5.13;;;;;;;17.43;100.00;101192.75;7396250;19;20516;-57
2022/05/10 07:59:03;;;;;;;13.80;5.47;;;;;;;17.51;100.00;101191.19;7389697;19;20414;-59
2022/05/10 08:01:33;;;;;;;13.93;5.87;;;;;;;17.55;100.00;101190.41;7398371;19;20449;-59
2022/05/10 08:04:06;;;;;;;10.83;5.90;;;;;;;17.57;100.00;101190.44;7390109;19;20464;-60
2022/05/10 08:06:36;;;;;;;12.07;5.30;;;;;;;17.60;100.00;101186.16;7395647;19;20489;-52
2022/05/10 08:09:05;;;;;;;17.00;7.37;;;;;;;17.80;100.00;101190.88;7391472;19;20774;-57
2022/05/10 08:11:35;;;;;;;16.03;6.33;;;;;;;17.90;100.00;101184.97;7397733;19;20418;-59
2022/05/10 08:14:05;;;;;;;19.33;6.37;;;;;;;17.98;100.00;101186.81;7390800;19;20421;-58
2022/05/10 08:16:34;;;;;;;19.27;6.70;;;;;;;18.00;100.00;101180.78;7395436;19;20422;-57
2022/05/10 08:19:07;;;;;;;13.30;6.47;;;;;;;18.03;100.00;101186.06;7389010;19;20490;-59
2022/05/10 08:21:37;;;;;;;19.77;6.10;;;;;;;18.18;100.00;101189.81;7397887;19;20391;-58
2022/05/10 08:24:07;;;;;;;13.93;5.50;;;;;;;18.32;100.00;101187.47;7391742;19;20422;-59
2022/05/10 08:26:36;;;;;;;12.37;5.70;;;;;;;18.34;100.00;101180.50;7395177;19;20729;-59
2022/05/10 08:29:06;;;;;;;14.80;5.53;;;;;;;18.48;100.00;101184.25;7388942;19;20979;-59
2022/05/10 08:31:36;;;;;;;8.63;5.00;;;;;;;18.45;100.00;101185.91;7397192;19;20944;-60
2022/05/10 08:34:09;;;;;;;17.63;5.60;;;;;;;18.64;100.00;101184.47;7389830;19;20434;-58
2022/05/10 08:36:38;;;;;;;19.60;6.10;;;;;;;18.63;100.00;101185.34;7395376;19;20422;-58
2022/05/10 08:39:08;;;;;;;14.13;5.40;;;;;;;18.60;100.00;101187.88;7388298;19;20975;-57
2022/05/10 08:41:44;;;;;;;12.10;5.73;;;;;;;18.79;100.00;101188.16;7399953;19;20392;-57
2022/05/10 08:44:16;;;;;;;13.90;5.20;;;;;;;18.84;100.00;101184.78;7389293;19;20432;-60
2022/05/10 08:46:48;;;;;;;11.10;6.10;;;;;;;18.79;100.00;101188.16;7394891;19;20482;-59
2022/05/10 08:49:27;;;;;;;13.93;6.10;;;;;;;18.74;100.00;101189.00;7368030;19;20425;-56
2022/05/10 08:51:57;;;;;;;12.97;6.20;;;;;;;18.78;100.00;101183.78;7396852;19;20395;-58
2022/05/10 08:54:27;;;;;;;22.07;8.97;;;;;;;18.82;100.00;101178.63;7389000;19;20422;-59
2022/05/10 08:56:58;;;;;;;19.90;8.40;;;;;;;18.92;100.00;101178.78;7400981;19;20395;-60
2022/05/10 08:59:34;;;;;;;16.40;7.80;;;;;;;18.98;100.00;101178.84;7388650;19;21060;-59
2022/05/10 09:02:06;;;;;;;25.23;10.20;;;;;;;19.03;100.00;101172.84;7396407;19;20387;-59
2022/05/10 09:04:45;;;;;;;16.37;5.60;;;;;;;19.13;100.00;101176.47;7384916;19;20454;-59
2022/05/10 09:07:26;;;;;;;18.77;7.27;;;;;;;19.07;100.00;101163.31;7394704;19;20459;-59
2022/05/10 09:10:04;;;;;;;19.80;7.97;;;;;;;19.06;100.00;101171.16;7361066;19;20394;-60
2022/05/10 09:12:41;;;;;;;13.90;5.30;;;;;;;19.13;100.00;101157.28;7391180;19;20387;-60
2022/05/10 09:15:12;;;;;;;16.27;6.47;;;;;;;19.05;100.00;101169.38;7396255;19;20453;-59
2022/05/10 09:17:42;;;;;;;15.50;6.00;;;;;;;19.32;100.00;101165.38;7384390;19;20395;-60
2022/05/10 09:20:15;;;;;;;10.33;5.37;;;;;;;19.53;100.00;101157.75;7392724;19;20483;-59
2022/05/10 09:23:12;;;;;;;12.80;6.47;;;;;;;19.64;100.00;101155.25;7387276;19;20415;-60
2022/05/10 09:25:45;;;;;;;11.33;5.63;;;;;;;19.99;100.00;101156.47;7393136;19;20785;-59
2022/05/10 09:28:25;;;;;;;24.33;12.43;;;;;;;20.24;100.00;101156.69;7387202;19;20440;-59
2022/05/10 09:36:30;;;;;;;13.20;5.27;;;;;;;20.51;100.00;101144.69;7392648;19;20419;-60
2022/05/10 09:39:03;;;;;;;11.57;4.83;;;;;;;20.53;100.00;101148.19;7358761;19;20423;-56
2022/05/10 09:41:44;;;;;;;10.63;5.00;;;;;;;20.68;100.00;101146.50;7393978;19;20759;-59
2022/05/10 09:44:17;;;;;;;10.43;5.40;;;;;;;20.68;100.00;101136.03;7386762;19;20433;-60
2022/05/10 09:46:47;;;;;;;12.00;5.43;;;;;;;20.73;100.00;101134.31;7392870;19;20431;-60
2022/05/10 09:49:34;;;;;;;9.73;4.27;;;;;;;21.27;100.00;101133.72;7386949;19;20458;-60
2022/05/10 09:52:08;;;;;;;8.33;4.03;;;;;;;21.33;100.00;101133.72;7394842;19;20388;-59
2022/05/10 09:54:40;;;;;;;13.00;4.60;;;;;;;21.41;100.00;101125.88;7386759;19;20428;-59
2022/05/10 09:57:13;;;;;;;7.80;3.90;;;;;;;21.26;98.97;101117.09;7398553;19;20467;-59
2022/05/10 09:59:47;;;;;;;9.20;4.40;;;;;;;21.15;99.30;101111.81;7385602;19;20945;-59
2022/05/10 10:02:29;;;;;;;9.80;3.27;;;;;;;21.43;99.21;101116.25;7393497;19;20391;-60
2022/05/10 10:04:59;;;;;;;7.50;4.20;;;;;;;21.43;97.32;101109.25;7390529;19;20969;-59
2022/05/10 10:07:33;;;;;;;10.50;3.27;;;;;;;21.69;97.45;101113.69;7393814;19;20390;-59
2022/05/10 10:10:16;;;;;;;14.13;3.83;;;;;;;21.51;97.03;101097.88;7393892;19;20797;-60
2022/05/10 10:12:47;;;;;;;7.90;4.27;;;;;;;21.83;97.41;101099.69;7385842;19;20387;-60
2022/05/10 10:15:26;;;;;;;8.20;3.77;;;;;;;21.96;96.67;101088.31;7391801;19;20437;-60
2022/05/10 10:17:58;;;;;;;7.33;3.93;;;;;;;22.18;97.12;101093.56;7388024;19;20419;-60
2022/05/10 10:20:34;;;;;;;11.00;4.23;;;;;;;21.88;96.11;101086.59;7391816;19;20379;-59
2022/05/10 10:23:10;;;;;;;11.63;3.43;;;;;;;22.12;96.73;101097.09;7360684;19;20382;-60
2022/05/10 10:25:42;;;;;;;12.90;4.37;;;;;;;22.21;96.02;101090.91;7391022;19;20407;-60
2022/05/10 10:28:20;;;;;;;9.77;4.20;;;;;;;21.87;94.88;101090.97;7385441;19;20436;-58
2022/05/10 10:30:54;;;;;;;17.20;4.97;;;;;;;22.09;94.16;101077.78;7393804;19;20398;-60
2022/05/10 10:33:30;;;;;;;20.60;4.63;;;;;;;22.43;94.78;101068.97;7386288;19;20407;-59
2022/05/10 10:36:02;;;;;;;14.77;4.53;;;;;;;22.47;95.77;101069.00;7392269;19;20426;-60
2022/05/10 10:38:46;;;;;;;33.73;5.30;;;;;;;22.77;94.95;101075.03;7384599;19;20419;-59
2022/05/10 10:41:18;;;;;;;8.90;3.97;;;;;;;22.38;93.01;101064.63;7393272;19;20390;-59
2022/05/10 10:43:54;;;;;;;10.00;3.73;;;;;;;22.60;92.03;101061.97;7384617;19;20406;-60
2022/05/10 10:46:27;;;;;;;22.73;3.93;;;;;;;22.53;89.94;101047.09;7391387;19;20407;-59
2022/05/10 10:48:58;;;;;;;13.03;3.50;;;;;;;22.63;85.77;101050.56;7387566;19;20440;-59
2022/05/10 10:51:32;;;;;;;14.23;3.30;;;;;;;22.38;84.25;101045.34;7393651;19;20384;-59
2022/05/10 10:54:05;;;;;;;10.40;3.67;;;;;;;22.43;84.07;101045.31;7386182;19;20395;-59
2022/05/10 10:56:52;;;;;;;8.80;3.17;;;;;;;22.81;83.11;101035.59;7391318;19;20414;-59
2022/05/10 10:59:31;;;;;;;23.00;4.10;;;;;;;23.12;82.99;101049.44;7386342;19;20430;-59
2022/05/10 11:02:17;;;;;;;18.60;3.43;;;;;;;22.67;78.02;101039.16;7393318;19;20372;-59
2022/05/10 11:05:02;;;;;;;10.13;3.53;;;;;;;22.59;78.83;101043.56;7392272;19;20469;-59
2022/05/10 11:07:43;;;;;;;9.83;3.43;;;;;;;22.67;79.13;101031.28;7400505;19;20392;-59
2022/05/10 11:10:23;;;;;;;10.10;2.73;;;;;;;22.77;75.30;101032.09;7399158;19;20439;-60
2022/05/10 11:12:59;;;;;;;8.70;4.13;;;;;;;22.43;77.80;101022.56;7392008;19;20424;-59
2022/05/10 11:15:40;;;;;;;10.70;4.27;;;;;;;22.39;79.97;101016.44;7401803;19;20423;-59
2022/05/10 11:18:26;;;;;;;15.10;3.90;;;;;;;22.45;79.96;101019.94;7392912;19;20962;-59
2022/05/10 11:21:03;;;;;;;15.37;3.60;;;;;;;22.44;81.15;101013.78;7397661;19;20387;-59
2022/05/10 11:23:40;;;;;;;10.53;3.30;;;;;;;22.64;79.59;101000.59;7392981;19;20435;-59
2022/05/10 11:26:22;;;;;;;14.23;3.23;;;;;;;22.60;76.23;101011.16;7398167;19;20413;-59
2022/05/10 11:29:16;;;;;;;22.23;5.97;;;;;;;22.49;73.44;101005.88;7372842;19;20956;-60
2022/05/10 11:31:53;;;;;;;9.07;3.40;;;;;;;22.62;73.97;100993.59;7398842;19;20730;-60
2022/05/10 11:34:36;;;;;;;7.77;2.67;;;;;;;22.77;74.75;100990.03;7388559;19;20422;-60
2022/05/10 11:37:08;;;;;;;10.53;3.30;;;;;;;22.70;74.02;100996.19;7399347;19;20388;-59
2022/05/10 11:40:03;;;;;;;13.10;3.53;;;;;;;22.72;74.00;100992.66;7392508;19;20438;-59
2022/05/10 11:42:45;;;;;;;12.20;3.43;;;;;;;22.69;74.57;100991.78;7396685;19;20395;-59
2022/05/10 11:45:55;;;;;;;11.23;3.00;;;;;;;22.70;71.95;100988.31;7400805;19;20450;-58
2022/05/10 11:48:53;;;;;;;5.93;3.20;;;;;;;22.83;73.00;100984.72;7392125;19;20411;-60
2022/05/10 11:51:50;;;;;;;20.53;6.90;;;;;;;22.96;74.75;100993.41;7397810;19;20415;-58